createdAt,value
2019-06-08T00:00:16.784Z,21.10
2019-06-08T00:01:16.451Z,21.07
2019-06-08T00:02:16.649Z,21.04
2019-06-08T00:03:16.669Z,21.00
2019-06-08T00:04:16.545Z,21.03
2019-06-08T00:05:16.866Z,21.08
2019-06-08T00:06:16.763Z,20.97
2019-06-08T00:07:16.605Z,20.97
2019-06-08T00:08:16.842Z,20.95
2019-06-08T00:09:16.767Z,20.97
2019-06-08T00:10:16.930Z,20.90
2019-06-08T00:11:16.878Z,21.00
2019-06-08T00:12:16.928Z,20.90
2019-06-08T00:13:17.043Z,20.97
2019-06-08T00:14:17.363Z,20.89
2019-06-08T00:15:16.232Z,20.90
2019-06-08T00:16:17.407Z,20.90
2019-06-08T00:17:31.349Z,20.92
2019-06-08T00:18:17.408Z,20.88
2019-06-08T00:19:17.321Z,20.89
2019-06-08T00:20:17.581Z,20.90
2019-06-08T00:21:16.136Z,20.82
2019-06-08T00:22:16.116Z,20.86
2019-06-08T00:23:16.132Z,20.89
2019-06-08T00:24:16.091Z,20.83
2019-06-08T00:25:16.096Z,20.85
2019-06-08T00:26:16.067Z,20.89
2019-06-08T00:27:16.071Z,20.82
2019-06-08T00:28:16.182Z,20.92
2019-06-08T00:29:16.317Z,20.90
2019-06-08T00:30:16.023Z,20.80
2019-06-08T00:31:17.344Z,20.86
2019-06-08T00:32:16.193Z,20.85
2019-06-08T00:33:17.032Z,20.80
2019-06-08T00:34:16.559Z,20.85
2019-06-08T00:35:16.574Z,20.92
2019-06-08T00:36:16.740Z,20.88
2019-06-08T00:37:16.718Z,20.82
2019-06-08T00:38:16.911Z,20.83
2019-06-08T00:39:16.751Z,20.79
2019-06-08T00:40:16.835Z,20.80
2019-06-08T00:41:17.047Z,20.77
2019-06-08T00:42:17.029Z,20.73
2019-06-08T00:43:17.071Z,20.79
2019-06-08T00:44:17.076Z,20.73
2019-06-08T00:45:17.240Z,20.80
2019-06-08T00:46:17.163Z,20.74
2019-06-08T00:47:16.360Z,20.71
2019-06-08T00:48:16.714Z,20.74
2019-06-08T00:49:16.443Z,20.73
2019-06-08T00:50:16.714Z,20.74
2019-06-08T00:51:16.770Z,20.74
2019-06-08T00:52:16.865Z,20.68
2019-06-08T00:53:16.992Z,20.71
2019-06-08T00:54:15.757Z,20.73
2019-06-08T00:55:15.750Z,20.73
2019-06-08T00:56:15.746Z,20.75
2019-06-08T00:57:15.723Z,20.71
2019-06-08T00:58:15.730Z,20.71
2019-06-08T00:59:15.699Z,20.73
2019-06-08T01:00:15.686Z,20.68
2019-06-08T01:01:15.677Z,20.74
2019-06-08T01:02:15.664Z,20.74
2019-06-08T01:03:15.664Z,20.73
2019-06-08T01:04:15.645Z,20.75
2019-06-08T01:05:15.630Z,20.74
2019-06-08T01:06:15.619Z,20.73
2019-06-08T01:07:15.617Z,20.83
2019-06-08T01:08:15.616Z,20.80
2019-06-08T01:09:15.602Z,20.74
2019-06-08T01:10:15.576Z,20.82
2019-06-08T01:11:15.581Z,20.83
2019-06-08T01:12:15.553Z,20.89
2019-06-08T01:13:15.554Z,20.79
2019-06-08T01:14:15.544Z,20.82
2019-06-08T01:15:15.529Z,20.88
2019-06-08T01:16:15.510Z,20.85
2019-06-08T01:17:15.508Z,20.93
2019-06-08T01:18:15.485Z,20.93
2019-06-08T01:19:15.494Z,20.93
2019-06-08T01:20:15.461Z,21.00
2019-06-08T01:21:15.454Z,21.04
2019-06-08T01:22:15.442Z,20.92
2019-06-08T01:23:15.434Z,20.98
2019-06-08T01:24:15.430Z,21.00
2019-06-08T01:25:15.409Z,20.95
2019-06-08T01:26:15.405Z,20.98
2019-06-08T01:27:15.399Z,21.00
2019-06-08T01:28:15.395Z,21.05
2019-06-08T01:29:15.374Z,21.04
2019-06-08T01:30:15.356Z,21.04
2019-06-08T01:31:15.340Z,21.05
2019-06-08T01:32:15.344Z,21.08
2019-06-08T01:33:15.314Z,21.07
2019-06-08T01:34:15.319Z,21.13
2019-06-08T01:35:15.291Z,21.16
2019-06-08T01:36:15.286Z,21.10
2019-06-08T01:37:15.270Z,21.16
2019-06-08T01:38:15.259Z,21.19
2019-06-08T01:39:15.253Z,21.16
2019-06-08T01:40:15.253Z,21.19
2019-06-08T01:41:15.231Z,21.20
2019-06-08T01:42:15.213Z,21.19
2019-06-08T01:43:15.205Z,21.28
2019-06-08T01:44:15.194Z,21.26
2019-06-08T01:45:15.197Z,21.23
2019-06-08T01:46:15.181Z,21.29
2019-06-08T01:47:15.164Z,21.23
2019-06-08T01:48:19.980Z,21.28
2019-06-08T01:49:16.143Z,21.34
2019-06-08T01:50:15.147Z,21.30
2019-06-08T01:51:15.119Z,21.26
2019-06-08T01:52:15.111Z,21.28
2019-06-08T01:53:15.111Z,21.32
2019-06-08T01:54:15.086Z,21.23
2019-06-08T01:55:15.094Z,21.37
2019-06-08T01:56:15.067Z,21.34
2019-06-08T01:57:15.051Z,21.30
2019-06-08T01:58:15.039Z,21.30
2019-06-08T01:59:15.030Z,21.34
2019-06-08T02:00:36.950Z,21.28
2019-06-08T02:01:16.013Z,21.26
2019-06-08T02:02:15.006Z,21.23
2019-06-08T02:03:15.025Z,21.22
2019-06-08T02:04:14.971Z,21.20
2019-06-08T02:05:14.964Z,21.20
2019-06-08T02:06:14.961Z,21.19
2019-06-08T02:07:14.944Z,21.19
2019-06-08T02:08:14.927Z,21.07
2019-06-08T02:09:14.922Z,21.11
2019-06-08T02:10:14.909Z,21.13
2019-06-08T02:11:14.913Z,20.93
2019-06-08T02:12:14.884Z,20.89
2019-06-08T02:13:14.872Z,20.88
2019-06-08T02:14:14.877Z,20.83
2019-06-08T02:15:14.851Z,20.71
2019-06-08T02:16:14.863Z,20.73
2019-06-08T02:17:14.831Z,20.65
2019-06-08T02:18:14.818Z,20.70
2019-06-08T02:19:14.811Z,20.56
2019-06-08T02:20:14.796Z,20.58
2019-06-08T02:21:14.798Z,20.53
2019-06-08T02:22:14.773Z,20.52
2019-06-08T02:23:14.777Z,20.48
2019-06-08T02:24:14.757Z,20.39
2019-06-08T02:25:14.736Z,20.46
2019-06-08T02:26:14.749Z,20.42
2019-06-08T02:27:14.713Z,20.37
2019-06-08T02:28:14.706Z,20.32
2019-06-08T02:29:14.690Z,20.37
2019-06-08T02:30:14.691Z,20.37
2019-06-08T02:31:14.683Z,20.34
2019-06-08T02:32:14.672Z,20.23
2019-06-08T02:33:14.652Z,20.15
2019-06-08T02:34:14.643Z,20.25
2019-06-08T02:35:14.623Z,20.27
2019-06-08T02:36:14.635Z,20.19
2019-06-08T02:37:14.606Z,20.17
2019-06-08T02:38:14.592Z,20.15
2019-06-08T02:39:14.580Z,20.14
2019-06-08T02:40:14.574Z,20.15
2019-06-08T02:41:14.572Z,20.09
2019-06-08T02:42:14.547Z,20.11
2019-06-08T02:43:14.540Z,20.09
2019-06-08T02:44:14.533Z,20.08
2019-06-08T02:45:14.513Z,20.08
2019-06-08T02:46:14.517Z,20.02
2019-06-08T02:47:16.423Z,20.02
2019-06-08T02:48:14.499Z,20.07
2019-06-08T02:49:14.469Z,20.05
2019-06-08T02:50:14.462Z,20.00
2019-06-08T02:51:14.446Z,20.04
2019-06-08T02:52:14.441Z,20.02
2019-06-08T02:53:14.431Z,20.08
2019-06-08T02:54:14.410Z,19.99
2019-06-08T02:55:14.404Z,20.02
2019-06-08T02:56:14.420Z,19.92
2019-06-08T02:57:14.389Z,19.84
2019-06-08T02:58:14.380Z,19.93
2019-06-08T02:59:14.366Z,19.89
2019-06-08T03:00:14.382Z,19.93
2019-06-08T03:01:14.345Z,19.94
2019-06-08T03:02:14.324Z,19.90
2019-06-08T03:03:14.328Z,19.90
2019-06-08T03:04:14.316Z,19.90
2019-06-08T03:05:14.294Z,19.90
2019-06-08T03:06:14.283Z,19.89
2019-06-08T03:07:14.270Z,19.87
2019-06-08T03:08:14.274Z,19.90
2019-06-08T03:09:14.246Z,19.87
2019-06-08T03:10:14.249Z,19.86
2019-06-08T03:11:14.225Z,19.84
2019-06-08T03:12:14.223Z,19.89
2019-06-08T03:13:14.214Z,19.77
2019-06-08T03:14:14.190Z,19.86
2019-06-08T03:15:14.183Z,19.84
2019-06-08T03:16:14.184Z,19.77
2019-06-08T03:17:14.162Z,19.82
2019-06-08T03:18:14.160Z,19.71
2019-06-08T03:19:21.630Z,19.84
2019-06-08T03:20:15.123Z,19.74
2019-06-08T03:21:14.110Z,19.72
2019-06-08T03:22:14.107Z,19.75
2019-06-08T03:23:14.103Z,19.86
2019-06-08T03:24:14.083Z,19.82
2019-06-08T03:25:14.074Z,19.77
2019-06-08T03:26:14.061Z,19.77
2019-06-08T03:27:14.041Z,19.77
2019-06-08T03:28:14.059Z,19.71
2019-06-08T03:29:14.031Z,19.74
2019-06-08T03:30:18.478Z,19.74
2019-06-08T03:31:15.015Z,19.77
2019-06-08T03:32:14.002Z,19.77
2019-06-08T03:33:13.992Z,19.77
2019-06-08T03:34:13.970Z,19.77
2019-06-08T03:35:14.011Z,19.70
2019-06-08T03:36:13.947Z,19.68
2019-06-08T03:37:13.936Z,19.72
2019-06-08T03:38:13.937Z,19.72
2019-06-08T03:39:13.920Z,19.64
2019-06-08T03:40:13.903Z,19.67
2019-06-08T03:41:13.890Z,19.64
2019-06-08T03:42:13.882Z,19.67
2019-06-08T03:43:13.891Z,19.63
2019-06-08T03:44:13.864Z,19.64
2019-06-08T03:45:13.850Z,19.71
2019-06-08T03:46:13.843Z,19.59
2019-06-08T03:47:13.819Z,19.63
2019-06-08T03:48:13.830Z,19.63
2019-06-08T03:49:13.805Z,19.62
2019-06-08T03:50:13.786Z,19.67
2019-06-08T03:51:13.785Z,19.62
2019-06-08T03:52:13.786Z,19.62
2019-06-08T03:53:13.774Z,19.63
2019-06-08T03:54:13.740Z,19.54
2019-06-08T03:55:13.730Z,19.59
2019-06-08T03:56:13.723Z,19.53
2019-06-08T03:57:13.709Z,19.45
2019-06-08T03:58:13.720Z,19.44
2019-06-08T03:59:13.690Z,19.47
2019-06-08T04:00:13.998Z,19.32
2019-06-08T04:01:13.671Z,19.19
2019-06-08T04:02:13.657Z,19.07
2019-06-08T04:03:13.659Z,18.98
2019-06-08T04:04:13.635Z,19.01
2019-06-08T04:05:13.634Z,19.00
2019-06-08T04:06:13.611Z,18.96
2019-06-08T04:07:13.600Z,18.89
2019-06-08T04:08:13.607Z,18.91
2019-06-08T04:09:13.579Z,18.86
2019-06-08T04:10:13.577Z,18.91
2019-06-08T04:11:13.563Z,18.91
2019-06-08T04:12:13.549Z,18.89
2019-06-08T04:13:13.546Z,18.85
2019-06-08T04:14:13.522Z,18.89
2019-06-08T04:15:13.521Z,18.82
2019-06-08T04:16:13.507Z,18.94
2019-06-08T04:17:13.492Z,18.85
2019-06-08T04:18:13.498Z,18.86
2019-06-08T04:19:13.470Z,18.86
2019-06-08T04:20:13.459Z,18.86
2019-06-08T04:21:13.446Z,18.86
2019-06-08T04:22:13.447Z,18.86
2019-06-08T04:23:13.467Z,18.93
2019-06-08T04:24:13.414Z,18.83
2019-06-08T04:25:13.403Z,18.85
2019-06-08T04:26:13.390Z,18.89
2019-06-08T04:27:13.387Z,18.83
2019-06-08T04:28:13.411Z,18.94
2019-06-08T04:29:13.362Z,18.89
2019-06-08T04:30:13.352Z,18.89
2019-06-08T04:31:13.349Z,18.86
2019-06-08T04:32:13.329Z,18.86
2019-06-08T04:33:13.340Z,18.91
2019-06-08T04:34:13.304Z,18.86
2019-06-08T04:35:13.302Z,18.75
2019-06-08T04:36:13.286Z,18.76
2019-06-08T04:37:15.878Z,18.88
2019-06-08T04:38:13.291Z,18.86
2019-06-08T04:39:13.252Z,18.83
2019-06-08T04:40:13.253Z,18.86
2019-06-08T04:41:13.247Z,18.78
2019-06-08T04:42:13.224Z,18.88
2019-06-08T04:43:13.251Z,18.91
2019-06-08T04:44:13.197Z,18.93
2019-06-08T04:45:13.186Z,18.83
2019-06-08T04:46:13.288Z,18.81
2019-06-08T04:47:13.172Z,18.74
2019-06-08T04:48:13.170Z,18.81
2019-06-08T04:49:13.167Z,18.66
2019-06-08T04:50:22.666Z,18.70
2019-06-08T04:51:14.127Z,18.71
2019-06-08T04:52:13.136Z,18.68
2019-06-08T04:53:13.117Z,18.71
2019-06-08T04:54:14.600Z,18.66
2019-06-08T04:55:13.080Z,18.71
2019-06-08T04:56:13.071Z,18.67
2019-06-08T04:57:13.055Z,18.68
2019-06-08T04:58:13.078Z,18.75
2019-06-08T04:59:13.045Z,18.68
2019-06-08T05:00:13.668Z,18.74
2019-06-08T05:01:13.014Z,18.71
2019-06-08T05:02:13.001Z,18.82
2019-06-08T05:03:13.014Z,18.81
2019-06-08T05:04:12.980Z,18.79
2019-06-08T05:05:12.973Z,18.78
2019-06-08T05:06:12.957Z,18.75
2019-06-08T05:07:12.950Z,18.68
2019-06-08T05:08:12.954Z,18.75
2019-06-08T05:09:12.926Z,18.68
2019-06-08T05:10:12.913Z,18.83
2019-06-08T05:11:12.909Z,18.75
2019-06-08T05:12:12.897Z,18.79
2019-06-08T05:13:12.896Z,18.78
2019-06-08T05:14:12.868Z,18.81
2019-06-08T05:15:12.853Z,18.83
2019-06-08T05:16:12.854Z,18.81
2019-06-08T05:17:12.833Z,18.93
2019-06-08T05:18:12.844Z,18.86
2019-06-08T05:19:12.816Z,18.83
2019-06-08T05:20:12.802Z,18.89
2019-06-08T05:21:12.812Z,18.88
2019-06-08T05:22:12.789Z,19.04
2019-06-08T05:23:12.795Z,18.96
2019-06-08T05:24:12.766Z,19.00
2019-06-08T05:25:12.750Z,18.97
2019-06-08T05:26:12.736Z,18.94
2019-06-08T05:27:12.730Z,18.94
2019-06-08T05:28:12.728Z,18.88
2019-06-08T05:29:12.712Z,18.86
2019-06-08T05:30:12.697Z,18.88
2019-06-08T05:31:12.682Z,18.89
2019-06-08T05:32:12.670Z,18.82
2019-06-08T05:33:12.680Z,18.85
2019-06-08T05:34:12.648Z,18.85
2019-06-08T05:35:12.644Z,18.81
2019-06-08T05:36:12.636Z,18.94
2019-06-08T05:37:12.626Z,18.86
2019-06-08T05:38:12.618Z,18.93
2019-06-08T05:39:12.596Z,19.16
2019-06-08T05:40:12.598Z,19.26
2019-06-08T05:41:12.575Z,19.30
2019-06-08T05:42:12.562Z,19.34
2019-06-08T05:43:12.567Z,19.52
2019-06-08T05:44:12.537Z,19.53
2019-06-08T05:45:12.537Z,19.63
2019-06-08T05:46:12.522Z,19.74
2019-06-08T05:47:12.506Z,19.77
2019-06-08T05:48:12.513Z,19.92
2019-06-08T05:49:12.492Z,19.90
2019-06-08T05:50:12.478Z,20.08
2019-06-08T05:51:12.678Z,20.23
2019-06-08T05:52:12.456Z,20.17
2019-06-08T05:53:12.463Z,20.23
2019-06-08T05:54:12.433Z,20.29
2019-06-08T05:55:12.423Z,20.36
2019-06-08T05:56:12.408Z,20.48
2019-06-08T05:57:12.412Z,20.55
2019-06-08T05:58:12.426Z,20.53
2019-06-08T05:59:12.372Z,20.58
2019-06-08T06:00:12.367Z,20.56
2019-06-08T06:01:12.353Z,20.70
2019-06-08T06:02:12.341Z,20.74
2019-06-08T06:03:12.353Z,20.79
2019-06-08T06:04:12.329Z,20.86
2019-06-08T06:05:12.319Z,20.93
2019-06-08T06:06:12.295Z,20.92
2019-06-08T06:07:12.281Z,20.98
2019-06-08T06:08:18.771Z,20.93
2019-06-08T06:09:13.261Z,21.08
2019-06-08T06:10:12.253Z,21.01
2019-06-08T06:11:12.242Z,20.97
2019-06-08T06:12:12.229Z,20.88
2019-06-08T06:13:12.234Z,20.97
2019-06-08T06:14:12.211Z,20.88
2019-06-08T06:15:12.197Z,20.95
2019-06-08T06:16:12.193Z,20.95
2019-06-08T06:17:12.173Z,21.01
2019-06-08T06:18:12.174Z,20.95
2019-06-08T06:19:12.153Z,20.89
2019-06-08T06:20:12.140Z,20.97
2019-06-08T06:21:12.586Z,20.90
2019-06-08T06:22:12.115Z,20.97
2019-06-08T06:23:12.121Z,21.04
2019-06-08T06:24:12.104Z,21.10
2019-06-08T06:25:12.102Z,21.26
2019-06-08T06:26:12.071Z,21.20
2019-06-08T06:27:12.063Z,21.14
2019-06-08T06:28:12.068Z,21.20
2019-06-08T06:29:12.046Z,21.00
2019-06-08T06:30:12.047Z,21.04
2019-06-08T06:31:12.012Z,21.05
2019-06-08T06:32:12.011Z,20.97
2019-06-08T06:33:12.012Z,21.00
2019-06-08T06:34:11.985Z,20.90
2019-06-08T06:35:11.982Z,20.88
2019-06-08T06:36:11.968Z,20.86
2019-06-08T06:37:11.951Z,20.90
2019-06-08T06:38:11.953Z,20.89
2019-06-08T06:39:11.926Z,20.80
2019-06-08T06:40:11.914Z,20.86
2019-06-08T06:41:11.918Z,20.83
2019-06-08T06:42:11.890Z,20.82
2019-06-08T06:43:11.897Z,20.85
2019-06-08T06:44:11.872Z,20.79
2019-06-08T06:45:11.860Z,20.80
2019-06-08T06:46:11.848Z,20.67
2019-06-08T06:47:11.835Z,20.70
2019-06-08T06:48:11.839Z,20.53
2019-06-08T06:49:11.816Z,20.46
2019-06-08T06:50:11.802Z,20.58
2019-06-08T06:51:25.319Z,20.64
2019-06-08T06:52:12.780Z,20.77
2019-06-08T06:53:11.785Z,20.73
2019-06-08T06:54:11.762Z,20.74
2019-06-08T06:55:11.750Z,20.83
2019-06-08T06:56:11.736Z,20.93
2019-06-08T06:57:11.729Z,21.03
2019-06-08T06:58:11.734Z,21.08
2019-06-08T06:59:11.706Z,21.19
2019-06-08T07:00:11.704Z,21.18
2019-06-08T07:01:11.681Z,21.26
2019-06-08T07:02:11.668Z,21.29
2019-06-08T07:03:11.678Z,21.30
2019-06-08T07:04:11.646Z,21.35
2019-06-08T07:05:11.634Z,21.51
2019-06-08T07:06:11.624Z,21.56
2019-06-08T07:07:11.618Z,21.56
2019-06-08T07:08:11.617Z,21.71
2019-06-08T07:09:11.643Z,21.66
2019-06-08T07:10:11.584Z,21.78
2019-06-08T07:11:11.577Z,21.90
2019-06-08T07:12:11.556Z,21.93
2019-06-08T07:13:11.566Z,22.06
2019-06-08T07:14:11.536Z,22.13
2019-06-08T07:15:11.543Z,22.19
2019-06-08T07:16:18.347Z,22.16
2019-06-08T07:17:12.501Z,22.06
2019-06-08T07:18:11.505Z,22.18
2019-06-08T07:19:11.491Z,22.04
2019-06-08T07:20:11.473Z,22.07
2019-06-08T07:21:11.467Z,22.01
2019-06-08T07:22:11.448Z,21.94
2019-06-08T07:23:11.460Z,21.96
2019-06-08T07:24:11.428Z,21.90
2019-06-08T07:25:11.417Z,21.84
2019-06-08T07:26:11.434Z,21.81
2019-06-08T07:27:11.396Z,21.81
2019-06-08T07:28:11.403Z,21.73
2019-06-08T07:29:11.507Z,21.73
2019-06-08T07:30:11.390Z,21.74
2019-06-08T07:31:11.357Z,21.56
2019-06-08T07:32:11.345Z,21.69
2019-06-08T07:33:11.353Z,21.71
2019-06-08T07:34:11.323Z,21.78
2019-06-08T07:35:11.309Z,21.73
2019-06-08T07:36:11.298Z,21.88
2019-06-08T07:37:11.292Z,21.93
2019-06-08T07:38:11.293Z,22.09
2019-06-08T07:39:11.265Z,22.04
2019-06-08T07:40:11.249Z,22.18
2019-06-08T07:41:11.252Z,22.27
2019-06-08T07:42:11.235Z,22.25
2019-06-08T07:43:11.231Z,22.28
2019-06-08T07:44:11.209Z,22.27
2019-06-08T07:45:11.201Z,22.25
2019-06-08T07:46:11.195Z,22.21
2019-06-08T07:47:11.180Z,22.11
2019-06-08T07:48:11.185Z,22.11
2019-06-08T07:49:11.159Z,22.03
2019-06-08T07:50:11.154Z,21.96
2019-06-08T07:51:11.133Z,21.90
2019-06-08T07:52:11.205Z,21.88
2019-06-08T07:53:11.120Z,21.75
2019-06-08T07:54:11.101Z,21.62
2019-06-08T07:55:11.093Z,21.65
2019-06-08T07:56:11.078Z,21.62
2019-06-08T07:57:11.075Z,21.59
2019-06-08T07:58:11.079Z,21.55
2019-06-08T07:59:11.041Z,21.51
2019-06-08T08:00:11.077Z,21.44
2019-06-08T08:01:11.036Z,21.47
2019-06-08T08:02:11.014Z,21.40
2019-06-08T08:03:10.998Z,21.40
2019-06-08T08:04:11.005Z,21.35
2019-06-08T08:05:10.982Z,21.26
2019-06-08T08:06:10.993Z,21.16
2019-06-08T08:07:10.959Z,21.13
2019-06-08T08:08:10.952Z,21.18
2019-06-08T08:09:10.966Z,21.05
2019-06-08T08:10:10.937Z,21.01
2019-06-08T08:11:10.926Z,21.11
2019-06-08T08:12:12.243Z,21.00
2019-06-08T08:13:10.892Z,21.10
2019-06-08T08:14:10.905Z,21.04
2019-06-08T08:15:10.873Z,21.10
2019-06-08T08:16:10.859Z,21.03
2019-06-08T08:17:10.853Z,20.98
2019-06-08T08:18:10.882Z,21.01
2019-06-08T08:19:10.834Z,21.08
2019-06-08T08:20:10.830Z,21.08
2019-06-08T08:21:21.259Z,21.05
2019-06-08T08:22:22.077Z,21.18
2019-06-08T08:23:11.780Z,21.13
2019-06-08T08:24:10.772Z,21.23
2019-06-08T08:25:10.782Z,21.28
2019-06-08T08:26:10.752Z,21.26
2019-06-08T08:27:10.734Z,21.26
2019-06-08T08:28:10.728Z,21.20
2019-06-08T08:29:10.717Z,21.20
2019-06-08T08:30:10.725Z,21.11
2019-06-08T08:31:11.449Z,21.10
2019-06-08T08:32:10.689Z,21.11
2019-06-08T08:33:10.672Z,21.11
2019-06-08T08:34:10.664Z,21.10
2019-06-08T08:35:10.688Z,20.97
2019-06-08T08:36:10.644Z,20.90
2019-06-08T08:37:10.625Z,20.86
2019-06-08T08:38:10.615Z,20.89
2019-06-08T08:39:10.604Z,20.85
2019-06-08T08:40:10.593Z,20.77
2019-06-08T08:41:10.809Z,20.73
2019-06-08T08:42:10.568Z,20.77
2019-06-08T08:43:10.565Z,20.75
2019-06-08T08:44:10.557Z,20.74
2019-06-08T08:45:10.538Z,20.70
2019-06-08T08:46:10.535Z,20.74
2019-06-08T08:47:10.519Z,20.73
2019-06-08T08:48:24.595Z,20.75
2019-06-08T08:49:13.050Z,20.71
2019-06-08T08:50:10.482Z,20.73
2019-06-08T08:51:10.497Z,20.73
2019-06-08T08:52:11.651Z,20.70
2019-06-08T08:53:10.454Z,20.63
2019-06-08T08:54:10.447Z,20.65
2019-06-08T08:55:10.443Z,20.60
2019-06-08T08:56:10.437Z,20.56
2019-06-08T08:57:10.423Z,20.56
2019-06-08T08:58:10.402Z,20.56
2019-06-08T08:59:10.786Z,20.63
2019-06-08T09:00:10.379Z,20.55
2019-06-08T09:01:10.362Z,20.41
2019-06-08T09:02:11.502Z,20.37
2019-06-08T09:03:25.077Z,20.42
2019-06-08T09:04:11.331Z,20.42
2019-06-08T09:05:10.319Z,20.41
2019-06-08T09:06:10.311Z,20.33
2019-06-08T09:07:10.857Z,20.41
2019-06-08T09:08:10.289Z,20.48
2019-06-08T09:09:10.272Z,20.50
2019-06-08T09:10:11.429Z,20.53
2019-06-08T09:11:10.249Z,20.52
2019-06-08T09:12:10.253Z,20.61
2019-06-08T09:13:12.038Z,20.68
2019-06-08T09:14:14.098Z,20.74
2019-06-08T09:15:10.205Z,20.75
2019-06-08T09:16:10.207Z,20.82
2019-06-08T09:17:10.201Z,20.80
2019-06-08T09:18:10.185Z,20.82
2019-06-08T09:19:10.155Z,20.92
2019-06-08T09:20:15.356Z,21.00
2019-06-08T09:21:11.132Z,21.07
2019-06-08T09:22:10.160Z,21.10
2019-06-08T09:23:16.052Z,21.11
2019-06-08T09:24:11.212Z,21.10
2019-06-08T09:25:13.353Z,21.14
2019-06-08T09:26:13.127Z,21.16
2019-06-08T09:27:10.074Z,21.18
2019-06-08T09:28:10.077Z,21.13
2019-06-08T09:29:11.246Z,21.11
2019-06-08T09:30:10.037Z,20.98
2019-06-08T09:31:12.832Z,20.95
2019-06-08T09:32:10.024Z,20.93
2019-06-08T09:33:10.023Z,20.97
2019-06-08T09:34:15.037Z,20.93
2019-06-08T09:35:10.977Z,20.92
2019-06-08T09:36:09.979Z,20.97
2019-06-08T09:37:09.976Z,21.00
2019-06-08T09:38:10.979Z,20.97
2019-06-08T09:39:12.946Z,20.93
2019-06-08T09:40:09.942Z,20.92
2019-06-08T09:41:09.910Z,21.01
2019-06-08T09:42:09.898Z,21.00
2019-06-08T09:43:13.030Z,20.98
2019-06-08T09:44:11.581Z,21.11
2019-06-08T09:45:09.881Z,21.05
2019-06-08T09:46:09.860Z,21.25
2019-06-08T09:47:12.517Z,21.29
2019-06-08T09:48:09.854Z,21.37
2019-06-08T09:49:11.850Z,21.45
2019-06-08T09:50:09.820Z,21.43
2019-06-08T09:51:09.831Z,21.51
2019-06-08T09:52:09.798Z,21.50
2019-06-08T09:53:23.694Z,21.56
2019-06-08T09:54:12.645Z,21.51
2019-06-08T09:55:09.934Z,21.48
2019-06-08T09:56:10.145Z,21.53
2019-06-08T09:57:09.810Z,21.37
2019-06-08T09:58:11.816Z,21.44
2019-06-08T09:59:11.036Z,21.37
2019-06-08T10:00:18.020Z,21.34
2019-06-08T10:01:12.377Z,21.40
2019-06-08T10:02:12.814Z,21.41
2019-06-08T10:03:09.783Z,21.43
2019-06-08T10:04:09.730Z,21.38
2019-06-08T10:05:09.642Z,21.35
2019-06-08T10:06:12.279Z,21.26
2019-06-08T10:07:09.622Z,21.30
2019-06-08T10:08:09.785Z,21.35
2019-06-08T10:09:09.600Z,21.30
2019-06-08T10:10:09.901Z,21.30
2019-06-08T10:11:09.857Z,21.29
2019-06-08T10:12:10.018Z,21.25
2019-06-08T10:13:10.018Z,21.25
2019-06-08T10:14:12.391Z,21.22
2019-06-08T10:15:09.535Z,21.18
2019-06-08T10:16:10.486Z,21.19
2019-06-08T10:17:09.535Z,21.26
2019-06-08T10:18:09.545Z,21.28
2019-06-08T10:19:10.390Z,21.30
2019-06-08T10:20:10.150Z,21.32
2019-06-08T10:21:09.745Z,21.30
2019-06-08T10:22:09.462Z,21.34
2019-06-08T10:23:27.090Z,21.37
2019-06-08T10:24:10.474Z,21.29
2019-06-08T10:25:11.288Z,21.26
2019-06-08T10:26:09.411Z,21.26
2019-06-08T10:27:11.719Z,21.30
2019-06-08T10:28:13.668Z,21.28
2019-06-08T10:29:10.752Z,21.28
2019-06-08T10:30:10.194Z,21.26
2019-06-08T10:31:09.355Z,21.22
2019-06-08T10:32:09.574Z,21.22
2019-06-08T10:33:10.028Z,21.16
2019-06-08T10:34:11.197Z,21.26
2019-06-08T10:35:10.495Z,21.23
2019-06-08T10:36:12.184Z,21.19
2019-06-08T10:37:12.881Z,21.32
2019-06-08T10:38:12.028Z,21.29
2019-06-08T10:39:11.591Z,21.23
2019-06-08T10:40:09.259Z,21.23
2019-06-08T10:41:15.714Z,21.22
2019-06-08T10:42:11.491Z,21.20
2019-06-08T10:43:09.959Z,21.23
2019-06-08T10:44:13.820Z,21.26
2019-06-08T10:45:14.271Z,21.23
2019-06-08T10:46:16.353Z,21.16
2019-06-08T10:47:11.847Z,21.22
2019-06-08T10:48:09.699Z,21.30
2019-06-08T10:49:13.913Z,21.22
2019-06-08T10:50:14.716Z,21.26
2019-06-08T10:51:12.803Z,21.26
2019-06-08T10:52:10.647Z,21.28
2019-06-08T10:53:11.889Z,21.34
2019-06-08T10:54:11.078Z,21.34
2019-06-08T10:55:10.492Z,21.30
2019-06-08T10:56:11.806Z,21.32
2019-06-08T10:57:09.944Z,21.40
2019-06-08T10:58:11.255Z,21.55
2019-06-08T10:59:11.990Z,21.66
2019-06-08T11:00:17.977Z,21.67
2019-06-08T11:01:12.465Z,21.73
2019-06-08T11:02:13.464Z,21.74
2019-06-08T11:03:11.733Z,21.80
2019-06-08T11:04:09.393Z,21.93
2019-06-08T11:05:12.575Z,21.98
2019-06-08T11:06:12.961Z,22.11
2019-06-08T11:07:13.793Z,22.09
2019-06-08T11:08:14.167Z,22.07
2019-06-08T11:09:14.412Z,22.27
2019-06-08T11:10:12.077Z,22.38
2019-06-08T11:11:11.737Z,22.73
2019-06-08T11:12:14.617Z,22.81
2019-06-08T11:13:14.977Z,22.99
2019-06-08T11:14:12.528Z,23.17
2019-06-08T11:15:11.588Z,23.25
2019-06-08T11:16:12.754Z,23.28
2019-06-08T11:17:10.999Z,23.55
2019-06-08T11:18:11.835Z,23.76
2019-06-08T11:19:13.096Z,23.71
2019-06-08T11:20:11.859Z,23.96
2019-06-08T11:21:12.543Z,24.19
2019-06-08T11:22:13.859Z,24.21
2019-06-08T11:23:12.262Z,24.21
2019-06-08T11:24:23.290Z,24.52
2019-06-08T11:25:15.921Z,24.68
2019-06-08T11:26:19.385Z,24.78
2019-06-08T11:27:12.673Z,24.82
2019-06-08T11:28:14.862Z,24.90
2019-06-08T11:29:13.572Z,24.86
2019-06-08T11:30:14.193Z,24.81
2019-06-08T11:31:15.524Z,24.76
2019-06-08T11:32:12.320Z,24.60
2019-06-08T11:33:11.213Z,24.65
2019-06-08T11:34:10.210Z,24.56
2019-06-08T11:35:11.069Z,24.48
2019-06-08T11:36:13.773Z,24.36
2019-06-08T11:37:13.244Z,24.33
2019-06-08T11:38:11.496Z,24.31
2019-06-08T11:39:10.950Z,24.31
2019-06-08T11:40:10.999Z,24.22
2019-06-08T11:41:12.190Z,24.21
2019-06-08T11:42:12.320Z,24.15
2019-06-08T11:43:08.684Z,24.19
2019-06-08T11:44:12.397Z,24.21
2019-06-08T11:45:12.553Z,24.26
2019-06-08T11:46:08.552Z,24.40
2019-06-08T11:47:12.229Z,24.38
2019-06-08T11:48:08.792Z,24.65
2019-06-08T11:49:13.484Z,24.63
2019-06-08T11:50:12.951Z,24.74
2019-06-08T11:51:10.620Z,24.84
2019-06-08T11:52:09.066Z,25.09
2019-06-08T11:53:13.503Z,25.19
2019-06-08T11:54:27.293Z,25.22
2019-06-08T11:55:12.592Z,25.28
2019-06-08T11:56:10.026Z,25.36
2019-06-08T11:57:11.119Z,25.49
2019-06-08T11:58:11.838Z,25.78
2019-06-08T11:59:13.783Z,25.85
2019-06-08T12:00:18.037Z,25.95
2019-06-08T12:01:13.159Z,26.34
2019-06-08T12:02:13.526Z,26.52
2019-06-08T12:03:08.907Z,26.58
2019-06-08T12:04:08.345Z,26.53
2019-06-08T12:05:11.128Z,26.38
2019-06-08T12:06:09.457Z,26.11
2019-06-08T12:07:09.525Z,25.83
2019-06-08T12:08:08.487Z,25.63
2019-06-08T12:09:10.462Z,25.43
2019-06-08T12:10:09.644Z,25.38
2019-06-08T12:11:15.749Z,25.23
2019-06-08T12:12:14.148Z,25.19
2019-06-08T12:13:09.802Z,25.06
2019-06-08T12:14:10.806Z,25.09
2019-06-08T12:15:10.061Z,24.91
2019-06-08T12:16:14.929Z,24.91
2019-06-08T12:17:13.533Z,24.82
2019-06-08T12:18:10.968Z,24.70
2019-06-08T12:19:11.989Z,24.74
2019-06-08T12:20:14.013Z,24.68
2019-06-08T12:21:11.113Z,24.66
2019-06-08T12:22:09.932Z,24.71
2019-06-08T12:23:08.134Z,24.60
2019-06-08T12:24:08.333Z,24.76
2019-06-08T12:25:08.277Z,24.79
2019-06-08T12:26:08.237Z,24.81
2019-06-08T12:27:10.767Z,24.90
2019-06-08T12:28:09.076Z,24.85
2019-06-08T12:29:09.971Z,24.86
2019-06-08T12:30:16.724Z,24.81
2019-06-08T12:31:13.200Z,24.86
2019-06-08T12:32:10.795Z,25.14
2019-06-08T12:33:09.820Z,25.56
2019-06-08T12:34:09.194Z,26.10
2019-06-08T12:35:09.733Z,26.42
2019-06-08T12:36:09.117Z,26.73
2019-06-08T12:37:13.410Z,27.22
2019-06-08T12:38:09.975Z,27.85
2019-06-08T12:39:08.094Z,28.22
2019-06-08T12:40:11.404Z,28.68
2019-06-08T12:41:10.497Z,29.13
2019-06-08T12:42:12.076Z,29.41
2019-06-08T12:43:11.353Z,30.03
2019-06-08T12:44:10.379Z,30.39
2019-06-08T12:45:09.380Z,30.88
2019-06-08T12:46:09.630Z,31.38
2019-06-08T12:47:12.628Z,31.68
2019-06-08T12:48:15.743Z,31.99
2019-06-08T12:49:11.239Z,32.08
2019-06-08T12:50:09.836Z,32.33
2019-06-08T12:51:09.979Z,32.60
2019-06-08T12:52:09.911Z,32.83